Time;durP1;ratioP1;P1;durP2;ratioP2;P2;SDS_P1;SDS_P2;PMS_P1;PMS_P2;Temp;Humidity;BMP_temperature;BMP_pressure;BME280_temperature;BME280_humidity;BME280_pressure;Samples;Min_cycle;Max_cycle;Signal;HPM_P1;HPM_P2
2023/11/11 00:00:09;;;;;;;12.32;7.55;;;5.70;99.90;;;;;;2088197;28;20036;-78
2023/11/11 00:01:09;;;;;;;14.13;8.05;;;5.70;99.90;;;;;;2079053;28;20024;-78
2023/11/11 00:02:10;;;;;;;11.68;7.50;;;5.70;99.90;;;;;;2077522;28;20472;-78
2023/11/11 00:03:11;;;;;;;12.15;7.35;;;5.70;99.90;;;;;;2085374;28;20061;-79
2023/11/11 00:04:11;;;;;;;10.10;7.22;;;5.60;99.90;;;;;;2088178;28;20482;-79
2023/11/11 00:05:12;;;;;;;9.88;7.18;;;5.60;99.90;;;;;;2086580;28;20032;-79
2023/11/11 00:06:14;;;;;;;12.18;7.20;;;5.60;99.90;;;;;;2076398;28;20033;-78
2023/11/11 00:07:15;;;;;;;17.60;10.90;;;5.60;99.90;;;;;;2079052;28;20022;-78
2023/11/11 00:08:17;;;;;;;12.02;7.38;;;5.60;99.90;;;;;;2077939;28;20411;-78
2023/11/11 00:09:18;;;;;;;11.30;6.70;;;5.60;99.90;;;;;;2075709;28;20044;-77
2023/11/11 00:10:19;;;;;;;12.95;8.73;;;5.60;99.90;;;;;;2077794;28;20495;-77
2023/11/11 00:11:20;;;;;;;14.00;8.30;;;5.60;99.90;;;;;;2072361;28;20637;-77
2023/11/11 00:12:21;;;;;;;10.30;6.82;;;5.60;99.90;;;;;;2083000;28;20037;-77
2023/11/11 00:13:22;;;;;;;8.90;6.10;;;5.70;99.90;;;;;;2081512;28;20803;-76
2023/11/11 00:14:23;;;;;;;8.63;5.97;;;5.60;99.90;;;;;;2086709;28;20059;-77
2023/11/11 00:15:25;;;;;;;8.05;5.93;;;5.70;99.90;;;;;;2083493;28;20017;-76
2023/11/11 00:16:25;;;;;;;7.97;5.40;;;5.60;99.90;;;;;;2081180;28;20402;-78
2023/11/11 00:17:26;;;;;;;7.22;5.60;;;5.60;99.90;;;;;;2072372;28;20044;-78
2023/11/11 00:18:26;;;;;;;9.40;5.93;;;5.60;99.90;;;;;;2065558;28;20041;-78
2023/11/11 00:19:29;;;;;;;20.92;13.38;;;5.60;99.90;;;;;;2078131;28;20033;-77
2023/11/11 00:20:29;;;;;;;11.90;7.70;;;5.70;99.90;;;;;;2066684;28;20064;-77
2023/11/11 00:21:30;;;;;;;12.20;7.88;;;5.70;99.90;;;;;;2067179;28;20025;-77
2023/11/11 00:22:31;;;;;;;25.65;16.88;;;5.60;99.90;;;;;;2077986;28;20555;-78
2023/11/11 00:23:31;;;;;;;21.98;14.88;;;5.60;99.90;;;;;;2076491;28;20036;-79
2023/11/11 00:24:32;;;;;;;11.25;8.10;;;5.60;99.90;;;;;;2084493;28;20352;-79
2023/11/11 00:25:32;;;;;;;9.60;6.78;;;5.60;99.90;;;;;;2077625;28;20123;-77
2023/11/11 00:26:33;;;;;;;12.70;7.70;;;5.60;99.90;;;;;;2074811;28;20026;-79
2023/11/11 00:27:34;;;;;;;17.65;10.98;;;5.60;99.90;;;;;;2084646;28;20044;-78
2023/11/11 00:28:40;;;;;;;12.27;8.73;;;5.60;99.90;;;;;;2077063;28;20036;-78
2023/11/11 00:29:40;;;;;;;14.35;9.38;;;5.60;99.90;;;;;;2068247;28;20597;-78
2023/11/11 00:30:44;;;;;;;12.07;7.22;;;5.60;99.90;;;;;;2074351;28;20088;-78
2023/11/11 00:31:48;;;;;;;9.45;5.60;;;5.60;99.90;;;;;;2085949;28;20391;-79
2023/11/11 00:32:51;;;;;;;9.25;5.28;;;5.60;99.90;;;;;;2083973;28;20017;-78
2023/11/11 00:33:53;;;;;;;8.88;5.68;;;5.60;99.90;;;;;;2078226;28;20025;-78
2023/11/11 00:34:54;;;;;;;8.13;4.97;;;5.60;99.90;;;;;;2075044;28;20041;-78
2023/11/11 00:35:54;;;;;;;7.65;5.03;;;5.60;99.90;;;;;;2071639;28;20044;-77
2023/11/11 00:36:55;;;;;;;7.90;4.85;;;5.60;99.90;;;;;;2078178;28;20109;-78
2023/11/11 00:37:55;;;;;;;8.40;5.30;;;5.60;99.90;;;;;;2074475;28;20500;-77
2023/11/11 00:38:56;;;;;;;10.90;5.50;;;5.50;99.90;;;;;;2058441;28;20018;-77
2023/11/11 00:39:58;;;;;;;8.13;6.05;;;5.50;99.90;;;;;;2069793;28;20033;-77
2023/11/11 00:40:59;;;;;;;7.97;5.50;;;5.50;99.90;;;;;;2069452;28;20069;-77
2023/11/11 00:42:02;;;;;;;8.35;5.32;;;5.50;99.90;;;;;;2074561;28;20121;-77
2023/11/11 00:43:03;;;;;;;9.13;5.00;;;5.50;99.90;;;;;;2077997;28;20861;-76
2023/11/11 00:44:08;;;;;;;8.88;5.70;;;5.40;99.90;;;;;;2086880;28;20021;-77
2023/11/11 00:45:09;;;;;;;20.00;10.35;;;5.40;99.90;;;;;;2078452;28;20037;-76
2023/11/11 00:46:10;;;;;;;19.15;10.52;;;5.40;99.90;;;;;;2076553;28;20017;-76
2023/11/11 00:47:13;;;;;;;20.70;10.73;;;5.40;99.90;;;;;;2076762;28;20180;-76
2023/11/11 00:48:13;;;;;;;19.60;10.45;;;5.40;99.90;;;;;;2067536;28;20384;-77
2023/11/11 00:49:14;;;;;;;19.08;10.82;;;5.30;99.90;;;;;;2068826;28;20176;-77
2023/11/11 00:50:14;;;;;;;20.00;10.63;;;5.40;99.90;;;;;;2076209;28;20029;-78
2023/11/11 00:51:15;;;;;;;21.05;11.63;;;5.30;99.90;;;;;;2074990;28;20017;-77
2023/11/11 00:52:20;;;;;;;23.90;13.18;;;5.30;99.90;;;;;;2067109;28;20469;-79
2023/11/11 00:53:20;;;;;;;22.50;12.60;;;5.30;99.90;;;;;;2067989;28;20026;-78
2023/11/11 00:54:21;;;;;;;17.98;10.90;;;5.20;99.90;;;;;;2070606;28;20034;-79
2023/11/11 00:55:22;;;;;;;18.15;10.93;;;5.20;99.90;;;;;;2077468;28;20039;-77
2023/11/11 00:56:23;;;;;;;22.77;12.98;;;5.20;99.90;;;;;;2083704;28;20028;-78
2023/11/11 00:57:24;;;;;;;27.70;14.70;;;5.20;99.90;;;;;;2078226;28;20318;-78
2023/11/11 00:58:25;;;;;;;27.98;15.43;;;5.20;99.90;;;;;;2074435;28;20036;-77
2023/11/11 00:59:26;;;;;;;22.40;12.30;;;5.20;99.90;;;;;;2074338;28;20550;-78
2023/11/11 01:00:27;;;;;;;21.88;13.40;;;5.10;99.90;;;;;;2074643;28;20123;-78
2023/11/11 01:01:28;;;;;;;26.23;13.88;;;5.10;99.90;;;;;;2061828;28;20151;-78
2023/11/11 01:02:28;;;;;;;18.00;10.88;;;5.10;99.90;;;;;;2066672;28;20087;-78
2023/11/11 01:03:29;;;;;;;22.08;12.73;;;5.10;99.90;;;;;;2075233;28;20083;-77
2023/11/11 01:04:30;;;;;;;17.08;10.85;;;5.10;99.90;;;;;;2087103;28;20066;-77
2023/11/11 01:05:30;;;;;;;21.05;11.85;;;5.10;99.90;;;;;;2075097;28;20088;-78
2023/11/11 01:06:31;;;;;;;17.23;10.70;;;5.10;99.90;;;;;;2078146;28;20561;-78
2023/11/11 01:07:32;;;;;;;14.38;8.55;;;5.10;99.90;;;;;;2077792;28;20503;-80
2023/11/11 01:08:32;;;;;;;18.25;10.75;;;5.00;99.90;;;;;;2078426;28;20494;-77
2023/11/11 01:09:33;;;;;;;15.30;9.88;;;5.00;99.90;;;;;;2075154;28;20040;-77
2023/11/11 01:10:37;;;;;;;20.58;11.02;;;5.00;99.90;;;;;;2077513;28;20503;-76
2023/11/11 01:11:38;;;;;;;18.77;10.77;;;5.00;99.90;;;;;;2070626;28;20037;-76
2023/11/11 01:12:39;;;;;;;18.40;10.82;;;5.00;99.90;;;;;;2070780;28;20049;-77
2023/11/11 01:13:41;;;;;;;24.23;11.70;;;5.00;99.90;;;;;;2074351;28;20496;-76
2023/11/11 01:14:41;;;;;;;19.35;10.50;;;5.00;99.90;;;;;;2076826;28;20508;-77
2023/11/11 01:15:42;;;;;;;24.48;12.45;;;5.00;99.90;;;;;;2085233;28;20036;-77
2023/11/11 01:16:43;;;;;;;16.88;9.23;;;5.00;99.90;;;;;;2064079;28;20437;-77
2023/11/11 01:17:43;;;;;;;13.90;8.35;;;5.10;99.90;;;;;;2067322;28;20458;-77
2023/11/11 01:18:44;;;;;;;11.00;7.22;;;5.10;99.90;;;;;;2087329;28;20371;-77
2023/11/11 01:19:46;;;;;;;13.40;8.32;;;5.10;99.90;;;;;;2085466;28;20033;-78
2023/11/11 01:20:46;;;;;;;17.73;10.55;;;5.10;99.90;;;;;;2075954;28;20041;-78
2023/11/11 01:21:47;;;;;;;16.13;9.18;;;5.10;99.90;;;;;;2070485;28;20026;-77
2023/11/11 01:22:49;;;;;;;16.85;9.35;;;5.00;99.90;;;;;;2062634;28;20054;-77
2023/11/11 01:23:49;;;;;;;17.85;9.02;;;5.00;99.90;;;;;;2062696;28;20073;-77
2023/11/11 01:24:50;;;;;;;16.67;9.10;;;5.00;99.90;;;;;;2082165;28;20047;-76
2023/11/11 01:25:51;;;;;;;11.63;7.20;;;4.90;99.90;;;;;;2073949;28;20100;-76
2023/11/11 01:26:52;;;;;;;11.60;6.65;;;5.00;99.90;;;;;;2060083;28;20452;-77
2023/11/11 01:27:53;;;;;;;10.40;6.90;;;5.00;99.90;;;;;;2069830;28;20049;-78
2023/11/11 01:28:54;;;;;;;11.10;7.72;;;5.00;99.90;;;;;;2075830;28;20492;-77
2023/11/11 01:29:55;;;;;;;12.38;7.85;;;5.00;99.90;;;;;;2076656;28;20578;-76
2023/11/11 01:30:56;;;;;;;14.38;8.15;;;4.90;99.90;;;;;;2069364;28;20041;-78
2023/11/11 01:31:57;;;;;;;11.20;7.28;;;4.90;99.90;;;;;;2054293;28;20057;-76
2023/11/11 01:32:57;;;;;;;9.10;6.65;;;4.90;99.90;;;;;;2077684;28;20036;-76
2023/11/11 01:33:58;;;;;;;11.82;7.18;;;4.90;99.90;;;;;;2067286;28;20116;-77
2023/11/11 01:34:59;;;;;;;10.23;7.05;;;4.90;99.90;;;;;;2066151;28;20102;-76
2023/11/11 01:36:03;;;;;;;9.52;7.07;;;4.90;99.90;;;;;;2076605;28;20123;-77
2023/11/11 01:37:05;;;;;;;9.55;6.70;;;4.90;99.90;;;;;;2069980;28;20435;-77
2023/11/11 01:38:05;;;;;;;11.00;7.00;;;4.80;99.90;;;;;;2075335;28;20586;-77
2023/11/11 01:39:06;;;;;;;9.85;6.93;;;4.80;99.90;;;;;;2076734;28;20091;-78
2023/11/11 01:40:07;;;;;;;11.45;6.90;;;4.80;99.90;;;;;;2069779;28;20112;-76
2023/11/11 01:41:08;;;;;;;8.82;7.00;;;4.80;99.90;;;;;;2075172;28;20531;-77
2023/11/11 01:42:09;;;;;;;10.88;7.30;;;4.80;99.90;;;;;;2085461;28;20025;-77
2023/11/11 01:43:12;;;;;;;11.00;7.35;;;4.80;99.90;;;;;;2075394;28;20053;-77
2023/11/11 01:44:12;;;;;;;10.35;7.00;;;4.80;99.90;;;;;;2075675;28;20380;-77
2023/11/11 01:45:14;;;;;;;11.93;7.35;;;4.80;99.90;;;;;;2083731;28;20024;-77
2023/11/11 01:46:15;;;;;;;10.85;6.78;;;4.80;99.90;;;;;;2083759;28;20971;-77
2023/11/11 01:47:16;;;;;;;9.93;6.97;;;4.80;99.90;;;;;;2077972;28;20044;-76
2023/11/11 01:48:17;;;;;;;11.52;7.35;;;4.80;99.90;;;;;;2076384;28;20091;-78
2023/11/11 01:49:18;;;;;;;12.80;7.97;;;4.80;99.90;;;;;;2075331;28;20111;-76
2023/11/11 01:50:20;;;;;;;11.75;7.82;;;4.80;99.90;;;;;;2069833;28;20026;-77
2023/11/11 01:51:21;;;;;;;11.43;7.85;;;4.80;99.90;;;;;;2068653;28;20068;-76
2023/11/11 01:52:22;;;;;;;17.17;9.48;;;4.80;99.90;;;;;;2066618;28;20216;-76
2023/11/11 01:53:24;;;;;;;17.48;11.07;;;4.80;99.90;;;;;;2078440;28;20057;-77
2023/11/11 01:54:25;;;;;;;21.08;11.18;;;4.80;99.90;;;;;;2067832;28;20169;-76
2023/11/11 01:55:25;;;;;;;19.90;10.82;;;4.80;99.90;;;;;;2067209;28;20623;-76
2023/11/11 01:56:26;;;;;;;19.20;10.73;;;4.80;99.90;;;;;;2079778;28;20159;-77
2023/11/11 01:57:28;;;;;;;14.95;10.05;;;4.80;99.90;;;;;;2088431;28;20033;-77
2023/11/11 01:58:30;;;;;;;14.88;9.75;;;4.80;99.90;;;;;;2075711;28;20035;-76
2023/11/11 01:59:35;;;;;;;14.00;9.13;;;4.90;99.90;;;;;;2063144;28;20030;-77
2023/11/11 02:00:38;;;;;;;15.57;9.60;;;4.90;99.90;;;;;;2054396;28;20528;-76
2023/11/11 02:01:39;;;;;;;15.00;8.85;;;4.90;99.90;;;;;;2069258;28;20468;-77
2023/11/11 02:02:40;;;;;;;14.98;9.35;;;4.90;99.90;;;;;;2076567;28;20033;-76
2023/11/11 02:03:41;;;;;;;15.75;9.98;;;4.90;99.90;;;;;;2075280;28;20021;-77
2023/11/11 02:04:42;;;;;;;14.43;9.88;;;4.90;99.90;;;;;;2085714;28;20327;-77
2023/11/11 02:05:42;;;;;;;17.08;10.70;;;4.90;99.90;;;;;;2067293;28;20117;-76
2023/11/11 02:06:46;;;;;;;15.85;9.88;;;4.90;99.90;;;;;;2055254;28;20516;-77
2023/11/11 02:07:47;;;;;;;16.02;9.60;;;4.90;99.90;;;;;;2076020;28;20037;-77
2023/11/11 02:08:49;;;;;;;16.33;10.00;;;4.90;99.90;;;;;;2078063;28;20028;-75
2023/11/11 02:09:49;;;;;;;16.30;9.73;;;4.90;99.90;;;;;;2068610;28;20050;-77
2023/11/11 02:10:50;;;;;;;12.98;9.30;;;4.90;99.90;;;;;;2071185;28;20424;-77
2023/11/11 02:11:54;;;;;;;14.38;9.68;;;4.90;99.90;;;;;;2068665;28;20530;-78
2023/11/11 02:12:57;;;;;;;15.18;9.80;;;4.90;99.90;;;;;;2067795;28;20453;-77
2023/11/11 02:13:59;;;;;;;13.57;9.50;;;4.90;99.90;;;;;;2067917;28;20025;-77
2023/11/11 02:15:02;;;;;;;13.77;9.25;;;4.90;99.90;;;;;;2066628;28;20035;-78
2023/11/11 02:16:06;;;;;;;14.70;9.43;;;5.00;99.90;;;;;;2061715;28;20033;-75
2023/11/11 02:17:06;;;;;;;15.23;9.90;;;4.90;99.90;;;;;;2072334;28;20038;-77
2023/11/11 02:18:10;;;;;;;12.65;8.57;;;5.00;99.90;;;;;;2085032;28;20025;-76
2023/11/11 02:19:11;;;;;;;13.85;9.48;;;5.00;99.90;;;;;;2077143;28;20017;-77
2023/11/11 02:20:11;;;;;;;15.57;9.18;;;4.90;99.90;;;;;;2069538;28;20033;-76
2023/11/11 02:21:12;;;;;;;13.27;9.40;;;5.00;99.90;;;;;;2071880;28;20510;-77
2023/11/11 02:22:13;;;;;;;12.57;9.10;;;4.90;99.90;;;;;;2059686;28;20064;-76
2023/11/11 02:23:14;;;;;;;13.63;9.30;;;4.90;99.90;;;;;;2068710;28;20022;-76
2023/11/11 02:24:17;;;;;;;13.00;8.80;;;4.90;99.90;;;;;;2071160;28;20505;-79
2023/11/11 02:25:19;;;;;;;12.50;8.80;;;4.90;99.90;;;;;;2072171;28;20025;-76
2023/11/11 02:26:20;;;;;;;13.73;8.75;;;4.90;99.90;;;;;;2070697;28;20033;-77
2023/11/11 02:27:21;;;;;;;13.60;8.40;;;4.90;99.90;;;;;;2067938;28;20033;-77
2023/11/11 02:28:21;;;;;;;12.32;7.93;;;4.90;99.90;;;;;;2077247;28;20103;-78
2023/11/11 02:29:22;;;;;;;12.20;8.15;;;4.80;99.90;;;;;;2084519;28;20029;-77
2023/11/11 02:30:23;;;;;;;14.13;8.15;;;4.80;99.90;;;;;;2089780;28;20021;-78
2023/11/11 02:31:23;;;;;;;12.00;8.35;;;4.80;99.90;;;;;;2088860;28;20021;-77
2023/11/11 02:32:24;;;;;;;23.70;16.80;;;4.80;99.90;;;;;;2085176;28;20036;-77
2023/11/11 02:33:24;;;;;;;13.15;8.75;;;4.80;99.90;;;;;;2079756;28;20125;-77
2023/11/11 02:34:26;;;;;;;15.13;9.55;;;4.80;99.90;;;;;;2079012;28;20408;-76
2023/11/11 02:35:27;;;;;;;14.52;9.82;;;4.80;99.90;;;;;;2075861;28;20121;-78
2023/11/11 02:36:27;;;;;;;11.45;8.70;;;4.70;99.90;;;;;;2084231;28;20024;-78
2023/11/11 02:37:28;;;;;;;13.18;8.50;;;4.80;99.90;;;;;;2078916;28;20021;-78
2023/11/11 02:38:28;;;;;;;13.75;9.02;;;4.80;99.90;;;;;;2075865;28;20052;-77
2023/11/11 02:39:30;;;;;;;14.18;10.15;;;4.80;99.90;;;;;;2079053;28;20566;-76
2023/11/11 02:40:31;;;;;;;14.88;10.40;;;4.70;99.90;;;;;;2076003;28;20025;-77
2023/11/11 02:41:32;;;;;;;17.55;11.05;;;4.70;99.90;;;;;;2084492;28;20047;-76
2023/11/11 02:42:32;;;;;;;14.52;10.57;;;4.70;99.90;;;;;;2079291;28;20036;-77
2023/11/11 02:43:33;;;;;;;18.42;11.70;;;4.70;99.90;;;;;;2078723;28;20103;-77
2023/11/11 02:44:33;;;;;;;17.17;12.18;;;4.70;99.90;;;;;;2084568;28;20028;-77
2023/11/11 02:45:34;;;;;;;18.15;11.82;;;4.70;99.90;;;;;;2079115;28;20128;-76
2023/11/11 02:46:35;;;;;;;18.00;11.45;;;4.80;99.90;;;;;;2071119;28;20037;-76
2023/11/11 02:47:35;;;;;;;17.30;11.60;;;4.80;99.90;;;;;;2076281;28;20112;-76
2023/11/11 02:48:36;;;;;;;17.40;10.93;;;4.80;99.90;;;;;;2087701;28;20029;-77
2023/11/11 02:49:36;;;;;;;18.23;11.38;;;4.80;99.90;;;;;;2088321;28;20427;-76
2023/11/11 02:50:37;;;;;;;16.20;10.82;;;4.80;99.90;;;;;;2084812;28;20726;-77
2023/11/11 02:51:38;;;;;;;15.13;10.45;;;4.80;99.90;;;;;;2084452;28;20498;-77
2023/11/11 02:52:39;;;;;;;16.23;10.52;;;4.80;99.90;;;;;;2079427;28;20506;-77
2023/11/11 02:53:40;;;;;;;15.05;10.90;;;4.80;99.90;;;;;;2068252;28;20034;-77
2023/11/11 02:54:40;;;;;;;15.20;11.20;;;4.70;99.90;;;;;;2059497;28;20030;-76
2023/11/11 02:55:41;;;;;;;14.48;10.18;;;4.70;99.90;;;;;;2069560;28;20092;-77
2023/11/11 02:56:42;;;;;;;18.58;10.13;;;4.60;99.90;;;;;;2079716;28;20080;-77
2023/11/11 02:57:43;;;;;;;16.83;10.50;;;4.70;99.90;;;;;;2076476;28;20033;-77
2023/11/11 02:58:43;;;;;;;16.17;10.77;;;4.60;99.90;;;;;;2077751;28;20021;-77
2023/11/11 02:59:44;;;;;;;16.73;11.07;;;4.50;99.90;;;;;;2079388;28;20203;-77
2023/11/11 03:00:44;;;;;;;15.30;10.48;;;4.50;99.90;;;;;;2084335;28;20085;-77
2023/11/11 03:01:45;;;;;;;17.42;10.63;;;4.50;99.90;;;;;;2077609;28;20052;-77
2023/11/11 03:02:46;;;;;;;16.35;11.15;;;4.60;99.90;;;;;;2070890;28;20033;-78
2023/11/11 03:03:46;;;;;;;16.45;11.15;;;4.60;99.90;;;;;;2077488;28;20037;-77
2023/11/11 03:04:47;;;;;;;15.35;11.05;;;4.60;99.90;;;;;;2076765;28;20083;-78
2023/11/11 03:05:47;;;;;;;19.13;11.80;;;4.50;99.90;;;;;;2064079;28;20284;-78
2023/11/11 03:06:48;;;;;;;17.08;11.57;;;4.50;99.90;;;;;;2071150;28;20037;-77
2023/11/11 03:07:49;;;;;;;15.43;11.57;;;4.50;99.90;;;;;;2078632;28;20148;-78
2023/11/11 03:08:50;;;;;;;17.98;11.70;;;4.50;99.90;;;;;;2084981;28;20021;-77
2023/11/11 03:09:50;;;;;;;17.83;10.88;;;4.40;99.90;;;;;;2075697;28;20125;-77
2023/11/11 03:10:51;;;;;;;15.73;11.13;;;4.40;99.90;;;;;;2079544;28;20477;-77
2023/11/11 03:11:51;;;;;;;17.23;11.90;;;4.40;99.90;;;;;;2087518;28;20036;-78
2023/11/11 03:12:53;;;;;;;16.45;11.50;;;4.40;99.90;;;;;;2076062;28;20040;-77
2023/11/11 03:13:53;;;;;;;19.33;12.13;;;4.40;99.90;;;;;;2067647;28;20132;-77
2023/11/11 03:14:54;;;;;;;20.33;13.57;;;4.40;99.90;;;;;;2075212;28;20022;-77
2023/11/11 03:15:54;;;;;;;18.15;12.40;;;4.40;99.90;;;;;;2067244;28;20419;-76
2023/11/11 03:16:55;;;;;;;19.10;12.73;;;4.40;99.90;;;;;;2079192;28;20333;-77
2023/11/11 03:17:56;;;;;;;19.95;13.38;;;4.40;99.90;;;;;;2087255;28;20548;-78
2023/11/11 03:18:56;;;;;;;20.35;14.45;;;4.40;99.90;;;;;;2084771;28;20025;-77
2023/11/11 03:19:58;;;;;;;22.42;14.65;;;4.40;99.90;;;;;;2075168;28;20026;-78
2023/11/11 03:20:59;;;;;;;20.02;14.35;;;4.40;99.90;;;;;;2071284;28;20568;-78
2023/11/11 03:22:00;;;;;;;27.35;16.55;;;4.40;99.90;;;;;;2078802;28;20059;-78
2023/11/11 03:23:00;;;;;;;26.38;17.17;;;4.40;99.90;;;;;;2067914;28;20038;-78
2023/11/11 03:24:04;;;;;;;23.50;16.73;;;4.50;99.90;;;;;;2070617;28;20022;-76
2023/11/11 03:25:06;;;;;;;24.02;16.85;;;4.50;99.90;;;;;;2078947;28;20068;-77
2023/11/11 03:26:07;;;;;;;24.88;16.63;;;4.50;99.90;;;;;;2075383;28;20435;-77
2023/11/11 03:27:08;;;;;;;26.92;17.85;;;4.50;99.90;;;;;;2077538;28;20029;-77
2023/11/11 03:28:08;;;;;;;26.83;17.92;;;4.60;99.90;;;;;;2070950;28;20475;-77
2023/11/11 03:29:09;;;;;;;27.55;18.70;;;4.50;99.90;;;;;;2067857;28;20073;-77
2023/11/11 03:30:10;;;;;;;29.60;18.75;;;4.60;99.90;;;;;;2077551;28;20028;-77
2023/11/11 03:31:11;;;;;;;30.33;18.73;;;4.50;99.90;;;;;;2085225;28;20087;-78
2023/11/11 03:32:12;;;;;;;28.05;18.25;;;4.50;99.90;;;;;;2086008;28;20040;-76
2023/11/11 03:33:12;;;;;;;31.73;18.70;;;4.60;99.90;;;;;;2085465;28;20109;-76
2023/11/11 03:34:13;;;;;;;28.67;18.23;;;4.50;99.90;;;;;;2078600;28;20017;-76
2023/11/11 03:35:14;;;;;;;29.40;18.77;;;4.60;99.90;;;;;;2060525;28;20572;-77
2023/11/11 03:36:14;;;;;;;26.70;17.90;;;4.60;99.90;;;;;;2051293;28;20031;-77
2023/11/11 03:37:15;;;;;;;28.30;18.23;;;4.60;99.90;;;;;;2062401;28;20025;-77
2023/11/11 03:38:15;;;;;;;26.73;17.92;;;4.50;99.90;;;;;;2068528;28;20026;-77
2023/11/11 03:39:16;;;;;;;30.02;18.85;;;4.60;99.90;;;;;;2077296;28;20493;-77
2023/11/11 03:40:17;;;;;;;26.95;18.48;;;4.50;99.90;;;;;;2075317;28;20511;-77
2023/11/11 03:41:17;;;;;;;28.05;18.50;;;4.60;99.90;;;;;;2069056;28;20046;-76
2023/11/11 03:42:18;;;;;;;28.48;18.60;;;4.60;99.90;;;;;;2077128;28;20051;-76
2023/11/11 03:43:19;;;;;;;30.45;19.13;;;4.60;99.90;;;;;;2070648;28;20396;-76
2023/11/11 03:44:19;;;;;;;28.13;18.80;;;4.60;99.90;;;;;;2069208;28;20416;-77
2023/11/11 03:45:21;;;;;;;28.20;19.02;;;4.60;99.90;;;;;;2068272;28;20706;-77
2023/11/11 03:46:21;;;;;;;27.83;18.90;;;4.60;99.90;;;;;;2072817;28;20025;-78
2023/11/11 03:47:23;;;;;;;28.70;18.95;;;4.60;99.90;;;;;;2074687;28;20029;-75
2023/11/11 03:48:24;;;;;;;29.67;19.90;;;4.60;99.90;;;;;;2075932;28;20017;-76
2023/11/11 03:49:24;;;;;;;29.10;19.80;;;4.60;99.90;;;;;;2078760;28;20036;-77
2023/11/11 03:50:25;;;;;;;30.08;20.45;;;4.60;99.90;;;;;;2086877;28;20019;-76
2023/11/11 03:51:26;;;;;;;28.13;19.13;;;4.60;99.90;;;;;;2084484;28;20032;-76
2023/11/11 03:52:26;;;;;;;29.65;19.80;;;4.70;99.90;;;;;;2078672;28;20508;-76
2023/11/11 03:53:27;;;;;;;30.75;20.33;;;4.70;99.90;;;;;;2078443;28;20510;-77
2023/11/11 03:54:28;;;;;;;28.77;20.20;;;4.70;99.90;;;;;;2075668;28;20480;-76
2023/11/11 03:55:28;;;;;;;28.70;19.48;;;4.70;99.90;;;;;;2087314;28;20028;-77
2023/11/11 03:56:29;;;;;;;30.48;20.52;;;4.70;99.90;;;;;;2075257;28;20032;-77
2023/11/11 03:57:29;;;;;;;32.58;21.10;;;4.70;99.90;;;;;;2069907;28;20488;-77
2023/11/11 03:58:30;;;;;;;33.75;21.73;;;4.60;99.90;;;;;;2075237;28;20033;-77
2023/11/11 03:59:36;;;;;;;33.40;21.40;;;4.70;99.90;;;;;;2084146;28;20379;-76
2023/11/11 04:00:36;;;;;;;31.25;20.80;;;4.70;99.90;;;;;;2082022;28;20056;-76
2023/11/11 04:01:37;;;;;;;31.38;21.13;;;4.70;99.90;;;;;;2084090;28;20052;-77
2023/11/11 04:02:38;;;;;;;32.60;20.95;;;4.70;99.90;;;;;;2077899;28;20477;-77
2023/11/11 04:03:39;;;;;;;30.55;20.60;;;4.70;99.90;;;;;;2078614;28;20048;-77
2023/11/11 04:04:41;;;;;;;32.35;21.27;;;4.70;99.90;;;;;;2077103;28;20353;-77
2023/11/11 04:05:42;;;;;;;31.48;21.67;;;4.70;99.90;;;;;;2073873;28;20029;-75
2023/11/11 04:06:43;;;;;;;32.10;20.50;;;4.70;99.90;;;;;;2077917;28;20033;-77
2023/11/11 04:07:46;;;;;;;33.63;21.70;;;4.70;99.90;;;;;;2079321;28;20511;-75
2023/11/11 04:08:47;;;;;;;35.20;21.85;;;4.80;99.90;;;;;;2069053;28;20404;-77
2023/11/11 04:09:48;;;;;;;32.35;21.73;;;4.80;99.90;;;;;;2068801;28;20026;-77
2023/11/11 04:10:48;;;;;;;37.67;23.23;;;4.80;99.90;;;;;;2070940;28;20034;-78
2023/11/11 04:11:49;;;;;;;36.15;22.95;;;4.80;99.90;;;;;;2077257;28;20034;-77
2023/11/11 04:12:50;;;;;;;37.13;22.67;;;4.80;99.90;;;;;;2068502;28;20117;-77
2023/11/11 04:13:51;;;;;;;41.30;23.45;;;4.80;99.90;;;;;;2079744;28;20084;-76
2023/11/11 04:14:51;;;;;;;36.97;23.65;;;4.80;99.90;;;;;;2086393;28;20037;-77
2023/11/11 04:15:52;;;;;;;36.05;23.45;;;4.80;99.90;;;;;;2083514;28;20047;-77
2023/11/11 04:16:53;;;;;;;36.28;23.42;;;4.80;99.90;;;;;;2080951;28;20056;-77
2023/11/11 04:17:54;;;;;;;38.33;24.02;;;4.90;99.90;;;;;;2084770;28;20051;-77
2023/11/11 04:18:54;;;;;;;39.88;24.00;;;4.80;99.90;;;;;;2076414;28;20064;-76
2023/11/11 04:19:55;;;;;;;35.40;24.13;;;4.80;99.90;;;;;;2080729;28;20297;-77
2023/11/11 04:20:57;;;;;;;37.28;23.02;;;4.80;99.90;;;;;;2079456;28;20098;-77
2023/11/11 04:21:57;;;;;;;36.65;24.00;;;4.80;99.90;;;;;;2077053;28;20025;-77
2023/11/11 04:22:58;;;;;;;36.40;23.38;;;4.80;99.90;;;;;;2083758;28;20433;-77
2023/11/11 04:23:59;;;;;;;34.58;23.35;;;4.80;99.90;;;;;;2074681;28;20032;-78
2023/11/11 04:24:59;;;;;;;33.40;23.00;;;4.80;99.90;;;;;;2078660;28;20456;-78
2023/11/11 04:26:03;;;;;;;36.65;23.50;;;4.90;99.90;;;;;;2078208;28;20036;-71
2023/11/11 04:27:04;;;;;;;34.92;22.83;;;4.90;99.90;;;;;;2083126;28;20028;-71
2023/11/11 04:28:04;;;;;;;36.22;22.88;;;4.80;99.90;;;;;;2078463;28;20151;-69
2023/11/11 04:29:05;;;;;;;31.48;21.88;;;4.90;99.90;;;;;;2070067;28;20123;-71
2023/11/11 04:30:06;;;;;;;34.88;22.23;;;4.90;99.90;;;;;;2074912;28;20020;-76
2023/11/11 04:31:08;;;;;;;34.15;22.92;;;4.90;99.90;;;;;;2079878;28;20055;-76
2023/11/11 04:32:08;;;;;;;32.63;21.85;;;4.90;99.90;;;;;;2083532;28;20017;-76
2023/11/11 04:33:09;;;;;;;35.60;23.48;;;4.90;99.90;;;;;;2083739;28;20017;-77
2023/11/11 04:34:09;;;;;;;33.53;22.58;;;4.90;99.90;;;;;;2077827;28;20033;-76
2023/11/11 04:35:10;;;;;;;34.45;22.48;;;4.90;99.90;;;;;;2070403;28;20020;-76
2023/11/11 04:36:11;;;;;;;33.65;22.90;;;4.90;99.90;;;;;;2075166;28;20124;-78
2023/11/11 04:37:12;;;;;;;36.58;22.75;;;4.90;99.90;;;;;;2069774;28;20121;-77
2023/11/11 04:38:12;;;;;;;35.10;23.00;;;4.90;99.90;;;;;;2070412;28;20542;-76
2023/11/11 04:39:14;;;;;;;35.75;23.25;;;4.90;99.90;;;;;;2084639;28;20483;-77
2023/11/11 04:40:15;;;;;;;35.53;23.52;;;4.80;99.90;;;;;;2086321;28;20021;-77
2023/11/11 04:41:17;;;;;;;35.50;23.33;;;4.80;99.90;;;;;;2087536;28;20143;-77
2023/11/11 04:42:18;;;;;;;38.13;24.13;;;4.80;99.90;;;;;;2085155;28;20100;-77
2023/11/11 04:43:18;;;;;;;37.35;24.10;;;4.80;99.90;;;;;;2085806;28;20356;-77
2023/11/11 04:44:19;;;;;;;39.40;24.65;;;4.80;99.90;;;;;;2078159;28;20677;-76
2023/11/11 04:45:19;;;;;;;36.85;23.95;;;4.80;99.90;;;;;;2076354;28;20101;-76
2023/11/11 04:46:20;;;;;;;37.13;25.17;;;4.80;99.90;;;;;;2085105;28;20009;-76
2023/11/11 04:47:21;;;;;;;36.70;24.38;;;4.80;99.90;;;;;;2085501;28;20514;-76
2023/11/11 04:48:21;;;;;;;38.15;24.40;;;4.80;99.90;;;;;;2087240;28;20119;-77
2023/11/11 04:49:22;;;;;;;37.17;24.45;;;4.80;99.90;;;;;;2076387;28;20034;-78
2023/11/11 04:50:24;;;;;;;36.22;23.95;;;4.80;99.90;;;;;;2076333;28;20053;-78
2023/11/11 04:51:25;;;;;;;38.55;24.88;;;4.80;99.90;;;;;;2074562;28;20455;-77
2023/11/11 04:52:26;;;;;;;37.67;25.45;;;4.80;99.90;;;;;;2076272;28;20184;-77
2023/11/11 04:53:28;;;;;;;38.90;25.67;;;4.80;99.90;;;;;;2083688;28;20029;-77
2023/11/11 04:54:28;;;;;;;38.50;24.92;;;4.80;99.90;;;;;;2083685;28;20025;-77
2023/11/11 04:55:29;;;;;;;38.20;25.02;;;4.70;99.90;;;;;;2087305;28;20025;-77
2023/11/11 04:56:30;;;;;;;37.25;24.55;;;4.80;99.90;;;;;;2086151;28;20035;-77
2023/11/11 04:57:31;;;;;;;35.88;23.98;;;4.80;99.90;;;;;;2084150;28;20028;-76
2023/11/11 04:58:31;;;;;;;37.60;25.00;;;4.80;99.90;;;;;;2087444;28;20040;-77
2023/11/11 04:59:32;;;;;;;37.45;24.90;;;4.80;99.90;;;;;;2084421;28;20082;-76
2023/11/11 05:00:32;;;;;;;40.67;24.83;;;4.80;99.90;;;;;;2074821;28;20056;-76
2023/11/11 05:01:33;;;;;;;40.63;25.23;;;4.70;99.90;;;;;;2078401;28;20123;-79
2023/11/11 05:02:34;;;;;;;38.90;24.90;;;4.70;99.90;;;;;;2087222;28;20028;-77
2023/11/11 05:03:34;;;;;;;40.50;25.83;;;4.80;99.90;;;;;;2083267;28;20052;-78
2023/11/11 05:04:35;;;;;;;38.72;24.63;;;4.70;99.90;;;;;;2077743;28;20056;-76
2023/11/11 05:05:35;;;;;;;36.80;24.30;;;4.70;99.90;;;;;;2064024;28;20492;-79
2023/11/11 05:06:36;;;;;;;36.30;24.08;;;4.80;99.90;;;;;;2074023;28;20033;-75
2023/11/11 05:07:39;;;;;;;37.30;24.50;;;4.80;99.90;;;;;;2087287;28;20533;-76
2023/11/11 05:08:39;;;;;;;34.05;23.55;;;4.70;99.90;;;;;;2074730;28;20033;-77
2023/11/11 05:09:40;;;;;;;38.60;23.88;;;4.70;99.90;;;;;;2074323;28;20172;-77
2023/11/11 05:10:41;;;;;;;39.20;24.13;;;4.70;99.90;;;;;;2078056;28;20032;-76
2023/11/11 05:11:41;;;;;;;37.17;24.42;;;4.70;99.90;;;;;;2078041;28;20157;-78
2023/11/11 05:12:42;;;;;;;40.00;24.15;;;4.70;99.90;;;;;;2075063;28;20037;-76
2023/11/11 05:13:44;;;;;;;37.90;23.90;;;4.70;99.90;;;;;;2086545;28;20036;-75
2023/11/11 05:14:44;;;;;;;39.05;25.02;;;4.70;99.90;;;;;;2087249;28;20791;-77